createdAt,value
2022-10-29T00:00:19.332Z,100052.72
2022-10-29T00:03:07.110Z,100057.75
2022-10-29T00:06:02.523Z,100056.94
2022-10-29T00:08:49.485Z,100055.28
2022-10-29T00:11:36.590Z,100058.69
2022-10-29T00:14:23.599Z,100055.41
2022-10-29T00:17:11.984Z,100056.34
2022-10-29T00:19:59.346Z,100054.69
2022-10-29T00:22:46.360Z,100061.59
2022-10-29T00:25:33.252Z,100048.84
2022-10-29T00:28:20.311Z,100054.13
2022-10-29T00:31:09.697Z,100051.66
2022-10-29T00:33:58.602Z,100050.81
2022-10-29T00:36:45.621Z,100059.47
2022-10-29T00:39:34.431Z,100055.38
2022-10-29T00:42:21.850Z,100053.75
2022-10-29T00:45:20.829Z,100053.84
2022-10-29T00:48:08.040Z,100059.00
2022-10-29T00:50:59.232Z,100053.03
2022-10-29T00:53:51.086Z,100059.00
2022-10-29T00:56:44.478Z,100073.63
2022-10-29T00:59:32.557Z,100061.69
2022-10-29T01:02:20.009Z,100064.28
2022-10-29T01:05:09.206Z,100066.84
2022-10-29T01:07:57.743Z,100069.41
2022-10-29T01:10:57.838Z,100062.63
2022-10-29T01:14:02.840Z,100063.44
2022-10-29T01:17:01.077Z,100054.06
2022-10-29T01:20:21.433Z,100064.34
2022-10-29T01:23:43.265Z,100053.47
2022-10-29T01:27:18.347Z,100062.00
2022-10-29T01:30:16.970Z,100055.22
2022-10-29T01:33:12.257Z,100062.94
2022-10-29T01:36:09.321Z,100051.84
2022-10-29T01:39:08.447Z,100060.47
2022-10-29T01:42:03.670Z,100056.25
2022-10-29T01:44:57.505Z,100053.00
2022-10-29T01:47:49.982Z,100049.50
2022-10-29T01:50:41.582Z,100048.66
2022-10-29T01:53:30.873Z,100038.34
2022-10-29T01:56:18.654Z,100046.91
2022-10-29T01:59:18.212Z,100045.97
2022-10-29T02:02:26.085Z,100043.38
2022-10-29T02:05:27.782Z,100042.47
2022-10-29T02:08:26.655Z,100044.34
2022-10-29T02:11:21.823Z,100035.91
2022-10-29T02:14:15.506Z,100035.09
2022-10-29T02:17:03.692Z,100029.09
2022-10-29T02:19:50.885Z,100030.06
2022-10-29T02:22:37.993Z,100030.06
2022-10-29T02:25:26.802Z,100029.22
2022-10-29T02:28:13.728Z,100025.13
2022-10-29T02:31:00.617Z,100028.63
2022-10-29T02:33:47.579Z,100028.53
2022-10-29T02:36:34.979Z,100025.03
2022-10-29T02:39:21.821Z,100025.03
2022-10-29T02:42:10.309Z,100015.53
2022-10-29T02:44:57.795Z,100011.31
2022-10-29T02:47:44.783Z,100009.59
2022-10-29T02:50:32.008Z,100013.88
2022-10-29T02:53:19.361Z,100019.03
2022-10-29T02:56:08.070Z,100020.91
2022-10-29T02:58:57.284Z,100010.63
2022-10-29T03:01:44.524Z,100013.41
2022-10-29T03:04:32.017Z,100021.13
2022-10-29T03:07:19.395Z,100014.34
2022-10-29T03:10:08.032Z,100013.50
2022-10-29T03:12:55.367Z,100019.63
2022-10-29T03:15:46.554Z,100016.22
2022-10-29T03:18:33.680Z,100022.28
2022-10-29T03:21:20.734Z,100018.09
2022-10-29T03:24:08.519Z,100018.16
2022-10-29T03:26:55.812Z,100013.13
2022-10-29T03:29:43.479Z,100011.53
2022-10-29T03:32:31.733Z,100007.31
2022-10-29T03:35:19.115Z,100007.41
2022-10-29T03:38:06.104Z,100010.78
2022-10-29T03:40:53.419Z,100003.09
2022-10-29T03:43:41.069Z,100009.03
2022-10-29T03:46:28.284Z,100013.38
2022-10-29T03:49:17.072Z,100005.66
2022-10-29T03:52:04.492Z,100014.19
2022-10-29T03:54:51.646Z,100007.31
2022-10-29T03:57:38.779Z,100020.16
2022-10-29T04:00:25.851Z,100020.97
2022-10-29T04:03:12.878Z,100019.31
2022-10-29T04:06:04.808Z,100026.25
2022-10-29T04:08:52.149Z,100027.16
2022-10-29T04:11:39.344Z,100032.31
2022-10-29T04:14:26.461Z,100028.00
2022-10-29T04:17:14.043Z,100029.75
2022-10-29T04:20:01.428Z,100019.44
2022-10-29T04:24:12.137Z,100022.84
2022-10-29T04:29:08.765Z,100023.06
2022-10-29T04:31:55.815Z,100022.97
2022-10-29T04:34:42.956Z,100013.50
2022-10-29T04:37:30.245Z,100022.84
2022-10-29T04:40:19.065Z,100010.78
2022-10-29T04:43:06.346Z,100013.38
2022-10-29T04:45:54.439Z,100015.94
2022-10-29T04:48:41.519Z,100021.09
2022-10-29T04:51:28.893Z,100018.63
2022-10-29T04:54:16.272Z,100014.28
2022-10-29T04:57:05.231Z,100017.91
2022-10-29T04:59:52.423Z,100011.84
2022-10-29T05:02:40.701Z,100003.44
2022-10-29T05:05:28.029Z,100005.16
2022-10-29T05:08:15.406Z,100003.44
2022-10-29T05:11:04.281Z,100004.22
2022-10-29T05:13:52.748Z,99999.81
2022-10-29T05:16:40.004Z,99997.25
2022-10-29T05:19:27.229Z,99991.13
2022-10-29T05:22:14.626Z,99988.44
2022-10-29T05:25:01.518Z,99981.56
2022-10-29T05:27:48.558Z,99978.06
2022-10-29T05:30:37.803Z,99990.94
2022-10-29T05:33:25.957Z,99985.06
2022-10-29T05:36:13.307Z,99979.13
2022-10-29T05:39:00.716Z,99986.84
2022-10-29T05:41:48.828Z,99985.06
2022-10-29T05:44:35.915Z,99982.50
2022-10-29T05:47:24.460Z,99986.00
2022-10-29T05:50:13.249Z,99985.88
2022-10-29T05:53:02.252Z,99984.16
2022-10-29T05:55:49.665Z,99986.72
2022-10-29T05:58:36.647Z,99985.06
2022-10-29T06:01:24.020Z,99986.72
2022-10-29T06:03:53.941Z,99984.84
2022-10-29T06:06:22.617Z,99992.66
2022-10-29T06:08:51.268Z,99981.56
2022-10-29T06:11:19.909Z,99996.09
2022-10-29T06:13:48.477Z,99996.09
2022-10-29T06:16:17.064Z,100002.03
2022-10-29T06:18:45.767Z,99979.00
2022-10-29T06:21:15.772Z,99985.78
2022-10-29T06:23:44.403Z,99991.88
2022-10-29T06:26:12.963Z,99983.22
2022-10-29T06:28:41.546Z,99989.97
2022-10-29T06:31:10.116Z,99988.25
2022-10-29T06:33:38.872Z,99993.41
2022-10-29T06:36:08.278Z,99989.06
2022-10-29T06:38:38.323Z,99988.25
2022-10-29T06:41:07.448Z,100001.22
2022-10-29T06:43:36.246Z,99991.75
2022-10-29T06:46:04.884Z,99991.75
2022-10-29T06:48:33.755Z,100000.28
2022-10-29T06:51:02.497Z,100000.28
2022-10-29T06:53:31.171Z,99996.91
2022-10-29T06:56:02.203Z,100005.41
2022-10-29T06:58:30.839Z,99996.91
2022-10-29T07:01:02.024Z,100005.31
2022-10-29T07:03:30.706Z,99990.72
2022-10-29T07:06:00.809Z,100001.94
2022-10-29T07:08:30.630Z,100001.94
2022-10-29T07:10:59.248Z,100002.66
2022-10-29T07:13:29.168Z,100008.59
2022-10-29T07:15:57.743Z,100005.09
2022-10-29T07:18:26.370Z,100014.56
2022-10-29T07:20:54.972Z,100008.59
2022-10-29T07:23:23.572Z,100014.56
2022-10-29T07:25:54.570Z,100009.41
2022-10-29T07:28:25.586Z,100016.22
2022-10-29T07:31:01.768Z,100015.28
2022-10-29T07:33:33.441Z,100012.72
2022-10-29T07:36:02.264Z,100022.06
2022-10-29T07:38:30.907Z,100021.13
2022-10-29T07:40:59.543Z,100017.63
2022-10-29T07:43:28.122Z,100024.41
2022-10-29T07:45:58.138Z,100025.22
2022-10-29T07:48:26.834Z,100021.72
2022-10-29T07:50:55.478Z,100023.38
2022-10-29T07:53:24.108Z,100022.44
2022-10-29T07:55:56.430Z,100020.69
2022-10-29T07:58:25.713Z,100026.66
2022-10-29T08:00:55.180Z,100035.09
2022-10-29T08:03:25.232Z,100033.22
2022-10-29T08:05:56.798Z,100032.41
2022-10-29T08:08:25.709Z,100027.00
2022-10-29T08:10:54.339Z,100026.09
2022-10-29T08:13:22.946Z,100025.06
2022-10-29T08:15:51.506Z,100020.59
2022-10-29T08:18:20.358Z,100028.91
2022-10-29T08:20:50.329Z,100022.72
2022-10-29T08:23:18.996Z,100029.41
2022-10-29T08:25:47.563Z,100030.81
2022-10-29T08:28:17.306Z,100020.28
2022-10-29T08:30:50.807Z,100027.78
2022-10-29T08:33:20.732Z,100023.34
2022-10-29T08:35:50.799Z,100028.25
2022-10-29T08:38:19.427Z,100024.63
2022-10-29T08:41:24.347Z,100028.78
2022-10-29T08:44:39.630Z,100036.50
2022-10-29T08:47:19.104Z,100032.06
2022-10-29T08:50:03.068Z,100026.81
2022-10-29T08:52:48.154Z,100023.19
2022-10-29T08:55:35.215Z,100031.59
2022-10-29T08:58:19.695Z,100034.88
2022-10-29T09:00:54.391Z,100033.00
2022-10-29T09:03:23.219Z,100032.88
2022-10-29T09:06:03.950Z,100037.00
2022-10-29T09:08:46.498Z,100033.47
2022-10-29T09:11:35.465Z,100027.41
2022-10-29T09:14:28.490Z,100035.00
2022-10-29T09:17:08.285Z,100034.09
2022-10-29T09:19:59.327Z,100042.50
2022-10-29T09:22:35.584Z,100037.22
2022-10-29T09:25:16.928Z,100037.09
2022-10-29T09:28:03.947Z,100035.25
2022-10-29T09:30:37.967Z,100034.19
2022-10-29T09:33:12.060Z,100031.50
2022-10-29T09:35:45.801Z,100026.94
2022-10-29T09:38:18.750Z,100015.56
2022-10-29T09:40:48.684Z,100016.16
2022-10-29T09:43:29.584Z,100014.16
2022-10-29T09:46:04.289Z,100015.69
2022-10-29T09:48:38.889Z,100015.44
2022-10-29T09:51:19.020Z,100006.66
2022-10-29T09:53:47.721Z,99998.69
2022-10-29T09:56:17.737Z,100000.22
2022-10-29T09:58:52.319Z,99995.66
2022-10-29T10:01:20.950Z,99993.63
2022-10-29T10:03:56.309Z,99991.63
2022-10-29T10:06:25.018Z,99990.59
2022-10-29T10:09:04.995Z,99981.66
2022-10-29T10:11:41.533Z,99985.78
2022-10-29T10:14:19.555Z,99974.41
2022-10-29T10:16:48.357Z,99966.53
2022-10-29T10:19:25.604Z,99966.28
2022-10-29T10:21:59.951Z,99967.84
2022-10-29T10:24:34.723Z,99951.44
2022-10-29T10:27:31.600Z,99953.88
2022-10-29T10:30:18.031Z,99952.81
2022-10-29T10:32:46.636Z,99943.19
2022-10-29T10:35:29.470Z,99951.63
2022-10-29T10:38:00.353Z,99942.00
2022-10-29T10:40:29.878Z,99950.44
2022-10-29T10:43:03.077Z,99943.38
2022-10-29T10:45:40.154Z,99933.91
2022-10-29T10:48:11.654Z,99944.91
2022-10-29T10:50:40.489Z,99931.88
2022-10-29T10:53:20.515Z,99934.34
2022-10-29T10:55:52.670Z,99935.16
2022-10-29T10:58:30.554Z,99931.66
2022-10-29T11:01:04.534Z,99922.16
2022-10-29T11:03:40.780Z,99927.19
2022-10-29T11:06:16.413Z,99921.09
2022-10-29T11:08:51.241Z,99915.91
2022-10-29T11:11:27.385Z,99917.56
2022-10-29T11:14:02.286Z,99901.97
2022-10-29T11:16:40.136Z,99897.59
2022-10-29T11:19:19.893Z,99896.66
2022-10-29T11:21:59.639Z,99894.91
2022-10-29T11:24:39.878Z,99890.56
2022-10-29T11:27:22.938Z,99893.97
2022-10-29T11:30:03.941Z,99889.59
2022-10-29T11:32:48.234Z,99889.59
2022-10-29T11:35:22.289Z,99889.59
2022-10-29T11:38:00.174Z,99886.91
2022-10-29T11:40:39.189Z,99878.09
2022-10-29T11:43:12.872Z,99877.16
2022-10-29T11:45:56.969Z,99873.75
2022-10-29T11:48:42.149Z,99872.81
2022-10-29T11:51:26.592Z,99871.84
2022-10-29T11:54:01.676Z,99869.28
2022-10-29T11:56:49.119Z,99869.28
2022-10-29T11:59:32.878Z,99858.97
2022-10-29T12:02:19.698Z,99862.38
2022-10-29T12:04:55.824Z,99862.38
2022-10-29T12:07:39.282Z,99870.78
2022-10-29T12:10:41.533Z,99858.97
2022-10-29T12:13:22.182Z,99868.22
2022-10-29T12:16:07.298Z,99860.47
2022-10-29T12:18:47.802Z,99863.88
2022-10-29T12:21:27.794Z,99857.88
2022-10-29T12:24:14.536Z,99852.59
2022-10-29T12:26:48.932Z,99849.06
2022-10-29T12:29:24.762Z,99848.94
2022-10-29T12:32:01.064Z,99845.44
2022-10-29T12:34:36.960Z,99831.59
2022-10-29T12:37:19.215Z,99825.59
2022-10-29T12:39:55.724Z,99833.22
2022-10-29T12:42:27.541Z,99829.69
2022-10-29T12:45:14.659Z,99822.78
2022-10-29T12:47:50.835Z,99815.03
2022-10-29T12:50:37.909Z,99809.03
2022-10-29T12:53:22.701Z,99816.66
2022-10-29T12:55:52.526Z,99808.09
2022-10-29T12:58:48.465Z,99798.72
2022-10-29T13:02:12.788Z,99805.78
2022-10-29T13:05:18.776Z,99816.25
2022-10-29T13:08:37.154Z,99817.97
2022-10-29T13:11:24.423Z,99815.41
2022-10-29T13:14:00.555Z,99814.47
2022-10-29T13:16:33.175Z,99815.25
2022-10-29T13:19:19.951Z,99805.78
2022-10-29T13:22:03.394Z,99792.88
2022-10-29T13:24:34.032Z,99804.84
2022-10-29T13:27:09.678Z,99803.88
2022-10-29T13:29:44.495Z,99797.91
2022-10-29T13:32:32.622Z,99792.75
2022-10-29T13:35:03.044Z,99800.34
2022-10-29T13:38:11.752Z,99798.72
2022-10-29T13:41:24.073Z,99787.97
2022-10-29T13:44:00.692Z,99784.44
2022-10-29T13:46:43.997Z,99781.72
2022-10-29T13:49:22.639Z,99776.47
2022-10-29T13:51:59.486Z,99775.63
2022-10-29T13:54:39.325Z,99781.63
2022-10-29T13:57:20.387Z,99783.22
2022-10-29T13:59:55.259Z,99778.91
2022-10-29T14:02:49.532Z,99777.13
2022-10-29T14:05:23.156Z,99771.03
2022-10-29T14:08:00.551Z,99765.88
2022-10-29T14:10:36.242Z,99767.50
2022-10-29T14:13:24.673Z,99764.09
2022-10-29T14:16:04.719Z,99768.44
2022-10-29T14:18:34.846Z,99773.59
2022-10-29T14:21:06.574Z,99772.66
2022-10-29T14:23:35.219Z,99773.34
2022-10-29T14:26:04.263Z,99778.50
2022-10-29T14:28:35.039Z,99787.06
2022-10-29T14:31:07.845Z,99781.88
2022-10-29T14:33:38.701Z,99783.66
2022-10-29T14:36:17.722Z,99784.38
2022-10-29T14:38:51.062Z,99780.94
2022-10-29T14:41:21.470Z,99786.13
2022-10-29T14:44:02.304Z,99783.41
2022-10-29T14:46:33.714Z,99779.06
2022-10-29T14:49:13.849Z,99774.72
2022-10-29T14:51:50.747Z,99771.19
2022-10-29T14:54:25.015Z,99767.81
2022-10-29T14:56:59.050Z,99758.28
2022-10-29T14:59:31.217Z,99766.03
2022-10-29T15:02:24.552Z,99767.66
2022-10-29T15:04:57.115Z,99755.00
2022-10-29T15:07:34.435Z,99748.91
2022-10-29T15:10:24.638Z,99751.63
2022-10-29T15:12:55.291Z,99752.41
2022-10-29T15:15:29.574Z,99743.75
2022-10-29T15:18:03.400Z,99756.66
2022-10-29T15:20:36.993Z,99747.25
2022-10-29T15:23:05.984Z,99751.47
2022-10-29T15:25:38.275Z,99743.75
2022-10-29T15:28:11.624Z,99745.50
2022-10-29T15:30:41.717Z,99751.47
2022-10-29T15:33:18.868Z,99741.16
2022-10-29T15:35:53.788Z,99746.31
2022-10-29T15:39:22.987Z,99746.72
2022-10-29T15:41:52.491Z,99764.66
2022-10-29T15:44:37.329Z,99763.72
2022-10-29T15:47:24.770Z,99762.06
2022-10-29T15:49:53.434Z,99768.03
2022-10-29T15:52:27.516Z,99761.94
2022-10-29T15:54:56.162Z,99763.72
2022-10-29T15:57:24.894Z,99764.53
2022-10-29T15:59:57.434Z,99766.28
2022-10-29T16:02:27.717Z,99753.41
2022-10-29T16:04:56.299Z,99763.72
2022-10-29T16:07:24.899Z,99763.72
2022-10-29T16:09:55.775Z,99767.25
2022-10-29T16:12:24.445Z,99763.00
2022-10-29T16:14:53.084Z,99762.22
2022-10-29T16:17:22.525Z,99761.38
2022-10-29T16:19:52.666Z,99770.09
2022-10-29T16:22:28.868Z,99758.25
2022-10-29T16:24:57.859Z,99757.41
2022-10-29T16:27:26.422Z,99759.47
2022-10-29T16:29:55.046Z,99749.13
2022-10-29T16:32:25.654Z,99750.06
2022-10-29T16:34:55.751Z,99752.78
2022-10-29T16:37:24.307Z,99746.00
2022-10-29T16:39:52.899Z,99750.47
2022-10-29T16:42:31.451Z,99754.66
2022-10-29T16:45:00.306Z,99754.00
2022-10-29T16:47:28.953Z,99751.56
2022-10-29T16:49:59.046Z,99752.63
2022-10-29T16:52:29.862Z,99751.66
2022-10-29T16:54:58.731Z,99754.38
2022-10-29T16:57:29.457Z,99757.91
2022-10-29T16:59:58.317Z,99752.84
2022-10-29T17:02:27.105Z,99753.00
2022-10-29T17:04:55.744Z,99757.34
2022-10-29T17:07:25.902Z,99758.28
2022-10-29T17:09:54.485Z,99756.63
2022-10-29T17:12:23.112Z,99758.41
2022-10-29T17:14:51.722Z,99759.47
2022-10-29T17:17:20.371Z,99758.69
2022-10-29T17:19:48.976Z,99761.25
2022-10-29T17:22:17.711Z,99757.84
2022-10-29T17:24:47.748Z,99752.94
2022-10-29T17:27:16.342Z,99758.91
2022-10-29T17:29:45.054Z,99756.47
2022-10-29T17:32:13.715Z,99765.16
2022-10-29T17:34:42.415Z,99763.53
2022-10-29T17:37:11.960Z,99758.50
2022-10-29T17:39:40.677Z,99756.06
2022-10-29T17:42:10.715Z,99757.78
2022-10-29T17:44:39.330Z,99765.66
2022-10-29T17:47:07.919Z,99764.88
2022-10-29T17:49:36.481Z,99760.63
2022-10-29T17:52:05.623Z,99765.94
2022-10-29T17:54:35.363Z,99764.28
2022-10-29T17:57:04.146Z,99760.06
2022-10-29T17:59:34.163Z,99762.78
2022-10-29T18:02:02.998Z,99765.34
2022-10-29T18:04:31.703Z,99769.72
2022-10-29T18:07:00.323Z,99763.84
2022-10-29T18:09:28.955Z,99781.91
2022-10-29T18:11:57.526Z,99768.31
2022-10-29T18:14:26.180Z,99772.66
2022-10-29T18:16:56.088Z,99767.50
2022-10-29T18:19:24.768Z,99774.56
2022-10-29T18:21:53.458Z,99778.88
2022-10-29T18:24:24.199Z,99778.03
2022-10-29T18:26:53.111Z,99779.81
2022-10-29T18:29:21.706Z,99780.75
2022-10-29T18:31:50.353Z,99785.91
2022-10-29T18:34:20.353Z,99786.97
2022-10-29T18:36:49.121Z,99786.16
2022-10-29T18:39:18.155Z,99785.31
2022-10-29T18:41:46.807Z,99788.03
2022-10-29T18:44:15.389Z,99781.22
2022-10-29T18:46:44.006Z,99782.19
2022-10-29T18:49:13.608Z,99775.41
2022-10-29T18:51:43.592Z,99774.56
2022-10-29T18:54:14.612Z,99767.78
2022-10-29T18:56:43.582Z,99772.25
2022-10-29T18:59:13.291Z,99769.66
2022-10-29T19:01:42.101Z,99764.50
2022-10-29T19:04:15.430Z,99765.44
2022-10-29T19:06:45.384Z,99762.06
2022-10-29T19:09:14.558Z,99764.63
2022-10-29T19:11:43.205Z,99764.63
2022-10-29T19:14:15.230Z,99760.53
2022-10-29T19:16:43.791Z,99768.41
2022-10-29T19:19:17.040Z,99762.56
2022-10-29T19:21:48.618Z,99766.88
2022-10-29T19:24:17.538Z,99766.22
2022-10-29T19:26:46.188Z,99765.38
2022-10-29T19:29:16.093Z,99766.44
2022-10-29T19:31:47.524Z,99770.78
2022-10-29T19:34:16.150Z,99766.56
2022-10-29T19:36:44.715Z,99773.50
2022-10-29T19:39:14.702Z,99773.63
2022-10-29T19:41:43.343Z,99769.41
2022-10-29T19:44:11.939Z,99774.56
2022-10-29T19:46:40.672Z,99771.97
2022-10-29T19:49:09.538Z,99770.34
2022-10-29T19:51:38.254Z,99775.50
2022-10-29T19:54:08.160Z,99773.03
2022-10-29T19:56:38.256Z,99775.63
2022-10-29T19:59:07.025Z,99779.13
2022-10-29T20:01:38.369Z,99773.19
2022-10-29T20:04:25.378Z,99773.31
2022-10-29T20:07:12.681Z,99783.75
2022-10-29T20:09:59.752Z,99775.28
2022-10-29T20:12:48.262Z,99779.78
2022-10-29T20:15:35.508Z,99772.03
2022-10-29T20:18:23.265Z,99780.72
2022-10-29T20:21:11.623Z,99775.56
2022-10-29T20:23:58.830Z,99780.00
2022-10-29T20:26:45.881Z,99778.38
2022-10-29T20:29:34.366Z,99781.75
2022-10-29T20:32:21.788Z,99784.47
2022-10-29T20:35:09.736Z,99774.16
2022-10-29T20:37:56.955Z,99776.03
2022-10-29T20:40:44.381Z,99773.31
2022-10-29T20:43:31.799Z,99775.22
2022-10-29T20:46:20.233Z,99776.03
2022-10-29T20:49:07.580Z,99774.41
2022-10-29T20:51:54.821Z,99777.00
2022-10-29T20:54:41.939Z,99781.31
2022-10-29T20:57:29.093Z,99772.78
2022-10-29T21:00:16.986Z,99771.94
2022-10-29T21:03:05.874Z,99770.31
2022-10-29T21:05:53.035Z,99772.06
2022-10-29T21:08:40.885Z,99773.03
2022-10-29T21:11:28.212Z,99772.31
2022-10-29T21:14:15.780Z,99776.75
2022-10-29T21:17:02.805Z,99771.59
2022-10-29T21:19:51.399Z,99783.69
2022-10-29T21:22:39.769Z,99783.81
2022-10-29T21:25:26.952Z,99788.16
2022-10-29T21:28:13.919Z,99784.75
2022-10-29T21:31:00.988Z,99788.25
2022-10-29T21:33:51.044Z,99787.56
2022-10-29T21:36:39.592Z,99789.22
2022-10-29T21:39:27.736Z,99783.34
2022-10-29T21:42:14.947Z,99778.19
2022-10-29T21:45:02.006Z,99782.41
2022-10-29T21:47:50.194Z,99776.34
2022-10-29T21:50:37.311Z,99777.25
2022-10-29T21:53:26.117Z,99772.13
2022-10-29T21:56:15.752Z,99775.63
2022-10-29T21:59:03.068Z,99768.81
2022-10-29T22:01:50.475Z,99774.94
2022-10-29T22:04:37.424Z,99770.72
2022-10-29T22:07:24.671Z,99770.00
2022-10-29T22:10:13.217Z,99775.16
2022-10-29T22:13:00.710Z,99770.97
2022-10-29T22:15:48.028Z,99766.75
2022-10-29T22:18:35.766Z,99772.03
2022-10-29T22:21:25.606Z,99765.13
2022-10-29T22:24:13.158Z,99772.03
2022-10-29T22:27:02.006Z,99766.88
2022-10-29T22:29:53.526Z,99772.97
2022-10-29T22:32:41.760Z,99773.09
2022-10-29T22:35:28.755Z,99768.88
2022-10-29T22:38:15.738Z,99764.66
2022-10-29T22:41:09.463Z,99756.25
2022-10-29T22:43:58.923Z,99769.25
2022-10-29T22:46:46.210Z,99763.25
2022-10-29T22:49:33.346Z,99760.00
2022-10-29T22:52:20.306Z,99765.16
2022-10-29T22:55:09.163Z,99756.81
2022-10-29T22:57:57.447Z,99759.38
2022-10-29T23:00:46.313Z,99755.28
2022-10-29T23:03:34.850Z,99758.78
2022-10-29T23:06:24.287Z,99753.09
2022-10-29T23:09:11.679Z,99760.94
2022-10-29T23:11:59.082Z,99753.34
2022-10-29T23:14:46.005Z,99762.00
2022-10-29T23:17:34.377Z,99754.41
2022-10-29T23:20:21.453Z,99755.31
2022-10-29T23:23:08.780Z,99758.03
2022-10-29T23:26:00.749Z,99756.25
2022-10-29T23:28:48.971Z,99757.09
2022-10-29T23:31:36.133Z,99763.97
2022-10-29T23:34:24.736Z,99763.03
2022-10-29T23:37:12.095Z,99761.41
2022-10-29T23:39:59.182Z,99763.97
2022-10-29T23:42:46.455Z,99756.25
2022-10-29T23:45:33.507Z,99751.09
2022-10-29T23:48:20.962Z,99754.59
2022-10-29T23:51:09.687Z,99754.53
2022-10-29T23:53:57.855Z,99751.09
2022-10-29T23:56:44.778Z,99762.25
2022-10-29T23:59:31.765Z,99758.03
